createdAt,value
2023-01-17T00:01:59.225Z,88.03
2023-01-17T00:05:32.849Z,87.60
2023-01-17T00:09:12.234Z,87.88
2023-01-17T00:12:28.556Z,86.19
2023-01-17T00:15:50.225Z,87.82
2023-01-17T00:19:24.065Z,87.12
2023-01-17T00:23:04.224Z,87.30
2023-01-17T00:26:26.166Z,86.92
2023-01-17T00:29:41.266Z,87.56
2023-01-17T00:33:03.158Z,88.02
2023-01-17T00:36:25.166Z,87.92
2023-01-17T00:39:40.291Z,87.40
2023-01-17T00:43:20.234Z,87.80
2023-01-17T00:47:00.169Z,88.15
2023-01-17T00:50:40.219Z,87.74
2023-01-17T00:54:20.216Z,87.93
2023-01-17T00:57:54.061Z,87.42
2023-01-17T01:01:34.277Z,87.65
2023-01-17T01:05:14.184Z,87.57
2023-01-17T01:08:55.155Z,87.95
2023-01-17T01:12:35.224Z,88.40
2023-01-17T01:16:08.699Z,87.95
2023-01-17T01:19:48.138Z,87.44
2023-01-17T01:23:29.151Z,88.41
2023-01-17T01:27:09.145Z,88.36
2023-01-17T01:30:49.154Z,87.36
2023-01-17T01:34:11.148Z,87.19
2023-01-17T01:37:26.333Z,88.17
2023-01-17T01:40:48.161Z,87.70
2023-01-17T01:44:03.471Z,87.79
2023-01-17T01:47:27.171Z,87.03
2023-01-17T01:50:50.142Z,87.78
2023-01-17T01:54:09.273Z,88.27
2023-01-17T01:57:33.153Z,87.95
2023-01-17T02:00:55.223Z,88.07
2023-01-17T02:04:11.018Z,88.08
2023-01-17T02:07:37.153Z,89.26
2023-01-17T02:10:52.372Z,88.10
2023-01-17T02:14:14.136Z,89.29
2023-01-17T02:17:54.189Z,88.43
2023-01-17T02:21:16.179Z,87.78
2023-01-17T02:24:34.169Z,88.84
2023-01-17T02:28:11.097Z,89.01
2023-01-17T02:31:36.323Z,89.53
2023-01-17T02:35:01.133Z,88.94
2023-01-17T02:38:23.119Z,89.09
2023-01-17T02:41:49.101Z,89.55
2023-01-17T02:45:11.121Z,88.48
2023-01-17T02:48:36.105Z,88.79
2023-01-17T02:51:51.322Z,88.79
2023-01-17T02:55:31.124Z,88.33
2023-01-17T02:58:59.124Z,87.94
2023-01-17T03:02:36.119Z,88.09
2023-01-17T03:06:06.076Z,87.84
2023-01-17T03:09:29.147Z,87.45
2023-01-17T03:12:45.185Z,87.55
2023-01-17T03:16:07.098Z,86.80
2023-01-17T03:19:29.131Z,87.99
2023-01-17T03:22:51.133Z,88.07
2023-01-17T03:26:13.107Z,86.77
2023-01-17T03:29:28.193Z,87.51
2023-01-17T03:32:50.079Z,87.97
2023-01-17T03:36:12.081Z,87.89
2023-01-17T03:39:34.015Z,88.20
2023-01-17T03:42:49.218Z,88.81
2023-01-17T03:46:14.101Z,88.01
2023-01-17T03:49:29.079Z,88.32
2023-01-17T03:52:51.041Z,88.46
2023-01-17T03:56:13.098Z,88.04
2023-01-17T03:59:35.102Z,88.53
2023-01-17T04:02:57.068Z,88.62
2023-01-17T04:06:12.144Z,88.81
2023-01-17T04:09:34.105Z,88.29
2023-01-17T04:12:49.188Z,88.67
2023-01-17T04:16:11.036Z,89.38
2023-01-17T04:19:33.065Z,89.56
2023-01-17T04:22:48.262Z,88.47
2023-01-17T04:26:10.057Z,87.69
2023-01-17T04:29:32.099Z,88.09
2023-01-17T04:32:47.178Z,87.47
2023-01-17T04:36:09.075Z,88.48
2023-01-17T04:39:24.160Z,88.15
2023-01-17T04:42:46.061Z,87.72
2023-01-17T04:46:09.051Z,87.12
2023-01-17T04:49:31.045Z,87.12
2023-01-17T04:52:46.199Z,88.41
2023-01-17T04:56:08.039Z,87.35
2023-01-17T04:59:23.083Z,87.76
2023-01-17T05:02:45.071Z,86.70
2023-01-17T05:06:00.159Z,88.30
2023-01-17T05:09:22.046Z,87.68
2023-01-17T05:12:43.967Z,88.27
2023-01-17T05:16:06.055Z,88.53
2023-01-17T05:19:28.013Z,89.05
2023-01-17T05:22:50.090Z,88.07
2023-01-17T05:26:12.019Z,88.57
2023-01-17T05:29:34.032Z,88.08
2023-01-17T05:32:55.992Z,88.56
2023-01-17T05:36:19.228Z,88.89
2023-01-17T05:39:43.034Z,87.79
2023-01-17T05:42:59.317Z,87.73
2023-01-17T05:46:23.141Z,87.25
2023-01-17T05:49:45.987Z,87.67
2023-01-17T05:53:02.125Z,87.81
2023-01-17T05:56:23.993Z,88.46
2023-01-17T05:59:39.095Z,87.14
2023-01-17T06:03:01.975Z,87.91
2023-01-17T06:06:17.153Z,87.27
2023-01-17T06:09:38.953Z,87.90
2023-01-17T06:13:01.044Z,88.28
2023-01-17T06:16:16.314Z,88.67
2023-01-17T06:19:37.992Z,88.10
2023-01-17T06:22:55.370Z,88.58
2023-01-17T06:26:17.004Z,88.89
2023-01-17T06:29:38.965Z,89.17
2023-01-17T06:33:09.999Z,90.56
2023-01-17T06:36:31.980Z,89.13
2023-01-17T06:39:53.951Z,88.62
2023-01-17T06:43:09.227Z,89.55
2023-01-17T06:46:31.020Z,88.27
2023-01-17T06:49:52.958Z,89.33
2023-01-17T06:53:10.081Z,89.86
2023-01-17T06:56:31.919Z,88.62
2023-01-17T06:59:47.523Z,89.24
2023-01-17T14:10:30.076Z,75.03
2023-01-17T14:13:45.460Z,75.53
2023-01-17T14:17:07.064Z,74.30
2023-01-17T14:20:25.323Z,72.75
2023-01-17T14:23:51.027Z,72.78
2023-01-17T14:27:22.049Z,74.34
2023-01-17T14:30:47.116Z,75.75
2023-01-17T14:34:19.080Z,75.19
2023-01-17T14:37:47.088Z,74.56
2023-01-17T14:41:14.017Z,73.97
2023-01-17T14:44:36.064Z,74.73
2023-01-17T14:47:52.742Z,73.73
2023-01-17T14:51:14.026Z,75.72
2023-01-17T14:54:29.584Z,75.84
2023-01-17T14:57:51.052Z,74.85
2023-01-17T15:01:33.177Z,74.67
2023-01-17T15:04:48.114Z,75.25
2023-01-17T15:08:10.003Z,75.65
2023-01-17T15:11:34.050Z,75.13
2023-01-17T15:14:56.023Z,75.18
2023-01-17T15:18:22.013Z,74.75
2023-01-17T15:21:47.008Z,75.03
2023-01-17T15:25:09.017Z,76.61
2023-01-17T15:28:24.733Z,75.82
2023-01-17T15:32:05.020Z,75.99
2023-01-17T15:35:20.629Z,74.95
2023-01-17T15:38:42.048Z,76.20
2023-01-17T15:42:12.044Z,75.41
2023-01-17T15:45:36.018Z,75.47
2023-01-17T15:48:58.009Z,75.70
2023-01-17T15:52:13.097Z,74.70
2023-01-17T15:55:38.071Z,76.10
2023-01-17T15:58:53.137Z,75.25
2023-01-17T16:02:32.066Z,76.60
2023-01-17T16:05:47.118Z,76.02
2023-01-17T16:09:11.035Z,75.38
2023-01-17T16:12:26.130Z,75.71
2023-01-17T16:15:48.078Z,77.09
2023-01-17T16:19:12.019Z,76.71
2023-01-17T16:22:33.991Z,77.24
2023-01-17T16:25:55.991Z,77.21
2023-01-17T16:29:11.208Z,77.35
2023-01-17T16:32:33.992Z,76.41
2023-01-17T16:35:57.969Z,77.13
2023-01-17T16:39:13.113Z,78.28
2023-01-17T16:42:34.991Z,78.24
2023-01-17T16:45:53.140Z,76.82
2023-01-17T16:49:14.964Z,76.91
2023-01-17T16:52:29.998Z,78.21
2023-01-17T16:55:51.999Z,77.82
2023-01-17T16:59:07.054Z,77.70
2023-01-17T17:02:29.965Z,79.28
2023-01-17T17:05:53.987Z,78.22
2023-01-17T17:09:15.971Z,80.08
2023-01-17T17:12:38.015Z,80.27
2023-01-17T17:16:00.060Z,79.16
2023-01-17T17:19:21.981Z,79.94
2023-01-17T17:22:43.982Z,79.19
2023-01-17T17:26:02.276Z,79.69
2023-01-17T17:29:23.946Z,79.84
2023-01-17T17:32:39.075Z,80.95
2023-01-17T17:36:00.922Z,80.49
2023-01-17T17:39:25.968Z,79.79
2023-01-17T17:42:42.424Z,80.20
2023-01-17T17:46:03.972Z,79.89
2023-01-17T17:49:26.916Z,80.80
2023-01-17T17:52:44.187Z,79.21
2023-01-17T17:56:09.967Z,79.83
2023-01-17T17:59:31.964Z,79.25
2023-01-17T18:02:53.923Z,79.74
2023-01-17T18:06:16.949Z,79.66
2023-01-17T18:09:38.951Z,81.00
2023-01-17T18:13:00.896Z,80.49
2023-01-17T18:16:23.966Z,80.27
2023-01-17T18:19:39.123Z,81.86
2023-01-17T18:23:00.900Z,82.46
2023-01-17T18:26:32.920Z,80.58
2023-01-17T18:29:55.981Z,80.77
2023-01-17T18:33:17.947Z,81.41
2023-01-17T18:36:34.836Z,80.58
2023-01-17T18:39:56.892Z,81.43
2023-01-17T18:43:12.092Z,80.89
2023-01-17T18:46:33.960Z,80.58
2023-01-17T18:49:59.868Z,82.21
2023-01-17T18:53:21.908Z,82.79
2023-01-17T18:56:43.939Z,82.23
2023-01-17T18:59:58.971Z,82.76
2023-01-17T19:03:20.946Z,83.17
2023-01-17T19:06:36.987Z,83.17
2023-01-17T19:09:58.933Z,82.75
2023-01-17T19:13:13.990Z,82.61
2023-01-17T19:16:37.009Z,82.79
2023-01-17T19:19:58.894Z,82.69
2023-01-17T19:23:14.186Z,82.76
2023-01-17T19:26:36.865Z,81.52
2023-01-17T19:29:52.099Z,76.96
2023-01-17T19:33:13.865Z,77.14
2023-01-17T19:36:37.856Z,80.59
2023-01-17T19:39:59.868Z,79.85
2023-01-17T19:43:21.957Z,78.42
2023-01-17T19:46:37.026Z,76.88
2023-01-17T19:49:58.884Z,73.38
2023-01-17T19:53:20.874Z,70.14
2023-01-17T19:56:42.876Z,71.03
2023-01-17T20:00:04.839Z,69.67
2023-01-17T20:03:22.070Z,69.53
2023-01-17T20:06:44.836Z,63.49
2023-01-17T20:10:06.888Z,63.19
2023-01-17T20:13:21.964Z,59.01
2023-01-17T20:16:43.891Z,58.30
2023-01-17T20:19:58.969Z,58.96
2023-01-17T20:23:20.852Z,55.66
2023-01-17T20:26:43.825Z,55.84
2023-01-17T20:30:08.165Z,57.11
2023-01-17T20:33:36.837Z,54.38
2023-01-17T20:37:00.855Z,55.39
2023-01-17T20:40:17.601Z,56.78
2023-01-17T20:43:39.809Z,56.31
2023-01-17T20:47:01.814Z,58.37
2023-01-17T20:50:17.163Z,54.88
2023-01-17T20:53:38.851Z,50.99
2023-01-17T20:56:55.316Z,53.42
2023-01-17T21:00:16.856Z,50.50
2023-01-17T21:03:33.800Z,53.96
2023-01-17T21:06:57.804Z,53.88
2023-01-17T21:10:19.817Z,51.09
2023-01-17T21:13:41.878Z,51.65
2023-01-17T21:17:03.853Z,53.59
2023-01-17T21:20:25.827Z,52.41
2023-01-17T21:23:48.794Z,49.68
2023-01-17T21:27:10.763Z,49.60
2023-01-17T21:30:26.038Z,50.58
2023-01-17T21:33:47.801Z,49.94
2023-01-17T21:37:09.761Z,50.96
2023-01-17T21:40:31.793Z,49.89
2023-01-17T21:43:53.808Z,50.43
2023-01-17T21:47:15.794Z,49.60
2023-01-17T21:50:33.644Z,50.47
2023-01-17T21:53:55.793Z,50.95
2023-01-17T21:57:36.826Z,51.05
2023-01-17T22:01:07.662Z,50.17
2023-01-17T22:04:29.753Z,50.22
2023-01-17T22:08:04.901Z,50.09
2023-01-17T22:11:27.735Z,50.99
2023-01-17T22:14:50.803Z,50.84
2023-01-17T22:18:06.233Z,50.47
2023-01-17T22:21:45.783Z,51.72
2023-01-17T22:25:07.782Z,52.03
2023-01-17T22:28:23.251Z,50.97
2023-01-17T22:31:44.757Z,52.53
2023-01-17T22:35:06.912Z,50.63
2023-01-17T22:38:22.027Z,50.06
2023-01-17T22:41:43.805Z,49.78
2023-01-17T22:44:58.983Z,50.04
2023-01-17T22:48:20.744Z,48.03
2023-01-17T22:51:42.738Z,48.53
2023-01-17T22:55:04.771Z,49.15
2023-01-17T22:58:26.724Z,50.84
2023-01-17T23:01:48.754Z,48.20
2023-01-17T23:05:03.999Z,49.12
2023-01-17T23:08:26.754Z,49.94
2023-01-17T23:11:56.728Z,47.21
2023-01-17T23:15:36.732Z,47.07
2023-01-17T23:19:10.617Z,48.14
2023-01-17T23:22:33.768Z,47.61
2023-01-17T23:25:48.907Z,48.50
2023-01-17T23:29:10.740Z,49.78
2023-01-17T23:32:32.784Z,50.02
2023-01-17T23:35:48.788Z,49.56
2023-01-17T23:39:10.731Z,47.66
2023-01-17T23:42:44.249Z,48.01
2023-01-17T23:46:05.707Z,48.47
2023-01-17T23:49:27.726Z,48.50
2023-01-17T23:52:42.896Z,47.59
2023-01-17T23:56:08.768Z,47.50
2023-01-17T23:59:30.709Z,47.53
